sensor_id;sensor_type;location;lat;lon;timestamp;P1;durP1;ratioP1;P2;durP2;ratioP2
21036;SDS011;10677;50.942;4.028;2023-04-25T00:00:29;14.88;;;5.30;;
21036;SDS011;10677;50.942;4.028;2023-04-25T00:02:54;20.10;;;6.05;;
21036;SDS011;10677;50.942;4.028;2023-04-25T00:05:25;21.60;;;6.15;;
21036;SDS011;10677;50.942;4.028;2023-04-25T00:07:51;17.85;;;6.40;;
21036;SDS011;10677;50.942;4.028;2023-04-25T00:10:17;13.77;;;5.75;;
21036;SDS011;10677;50.942;4.028;2023-04-25T00:12:45;15.80;;;6.00;;
21036;SDS011;10677;50.942;4.028;2023-04-25T00:15:11;17.52;;;6.25;;
21036;SDS011;10677;50.942;4.028;2023-04-25T00:17:37;19.33;;;5.45;;
21036;SDS011;10677;50.942;4.028;2023-04-25T00:20:06;16.63;;;5.85;;
21036;SDS011;10677;50.942;4.028;2023-04-25T00:22:34;18.25;;;6.35;;
21036;SDS011;10677;50.942;4.028;2023-04-25T00:25:02;17.20;;;5.80;;
21036;SDS011;10677;50.942;4.028;2023-04-25T00:27:31;17.42;;;6.07;;
21036;SDS011;10677;50.942;4.028;2023-04-25T00:29:57;16.23;;;5.82;;
21036;SDS011;10677;50.942;4.028;2023-04-25T00:32:23;18.17;;;6.32;;
21036;SDS011;10677;50.942;4.028;2023-04-25T00:34:48;12.48;;;5.50;;
21036;SDS011;10677;50.942;4.028;2023-04-25T00:37:14;15.82;;;5.65;;
21036;SDS011;10677;50.942;4.028;2023-04-25T00:39:40;15.00;;;5.53;;
21036;SDS011;10677;50.942;4.028;2023-04-25T00:42:06;16.95;;;5.32;;
21036;SDS011;10677;50.942;4.028;2023-04-25T00:44:33;13.00;;;5.45;;
21036;SDS011;10677;50.942;4.028;2023-04-25T00:47:01;14.65;;;5.13;;
21036;SDS011;10677;50.942;4.028;2023-04-25T00:49:28;16.30;;;4.82;;
21036;SDS011;10677;50.942;4.028;2023-04-25T00:51:54;16.73;;;5.18;;
21036;SDS011;10677;50.942;4.028;2023-04-25T00:54:20;15.70;;;5.07;;
21036;SDS011;10677;50.942;4.028;2023-04-25T00:56:46;17.60;;;5.22;;
21036;SDS011;10677;50.942;4.028;2023-04-25T00:59:11;14.02;;;4.65;;
21036;SDS011;10677;50.942;4.028;2023-04-25T01:01:38;19.42;;;5.68;;
21036;SDS011;10677;50.942;4.028;2023-04-25T01:04:04;17.92;;;5.40;;
21036;SDS011;10677;50.942;4.028;2023-04-25T01:06:30;17.52;;;5.72;;
21036;SDS011;10677;50.942;4.028;2023-04-25T01:08:56;15.13;;;5.13;;
21036;SDS011;10677;50.942;4.028;2023-04-25T01:11:24;19.10;;;5.22;;
21036;SDS011;10677;50.942;4.028;2023-04-25T01:13:50;14.18;;;4.57;;
21036;SDS011;10677;50.942;4.028;2023-04-25T01:16:16;17.40;;;4.75;;
21036;SDS011;10677;50.942;4.028;2023-04-25T01:18:41;21.38;;;5.25;;
21036;SDS011;10677;50.942;4.028;2023-04-25T01:21:09;15.65;;;5.25;;
21036;SDS011;10677;50.942;4.028;2023-04-25T01:23:36;19.05;;;5.18;;
21036;SDS011;10677;50.942;4.028;2023-04-25T01:26:03;18.15;;;5.25;;
21036;SDS011;10677;50.942;4.028;2023-04-25T01:28:30;14.18;;;4.65;;
21036;SDS011;10677;50.942;4.028;2023-04-25T01:30:58;18.98;;;5.05;;
21036;SDS011;10677;50.942;4.028;2023-04-25T01:33:24;19.75;;;5.28;;
21036;SDS011;10677;50.942;4.028;2023-04-25T01:35:50;17.92;;;4.80;;
21036;SDS011;10677;50.942;4.028;2023-04-25T01:38:16;20.17;;;4.40;;
21036;SDS011;10677;50.942;4.028;2023-04-25T01:40:42;16.30;;;5.28;;
21036;SDS011;10677;50.942;4.028;2023-04-25T01:43:11;14.77;;;4.78;;
21036;SDS011;10677;50.942;4.028;2023-04-25T01:45:39;17.35;;;4.68;;
21036;SDS011;10677;50.942;4.028;2023-04-25T01:48:06;17.08;;;4.68;;
21036;SDS011;10677;50.942;4.028;2023-04-25T01:50:33;22.08;;;4.75;;
21036;SDS011;10677;50.942;4.028;2023-04-25T01:52:58;12.20;;;4.40;;
21036;SDS011;10677;50.942;4.028;2023-04-25T01:55:24;20.67;;;5.07;;
21036;SDS011;10677;50.942;4.028;2023-04-25T01:57:51;15.40;;;4.25;;
21036;SDS011;10677;50.942;4.028;2023-04-25T02:00:16;20.67;;;4.40;;
21036;SDS011;10677;50.942;4.028;2023-04-25T02:02:42;19.42;;;5.45;;
21036;SDS011;10677;50.942;4.028;2023-04-25T02:05:08;16.35;;;3.83;;
21036;SDS011;10677;50.942;4.028;2023-04-25T02:07:34;17.25;;;4.72;;
21036;SDS011;10677;50.942;4.028;2023-04-25T02:09:59;14.98;;;4.20;;
21036;SDS011;10677;50.942;4.028;2023-04-25T02:12:25;20.02;;;4.45;;
21036;SDS011;10677;50.942;4.028;2023-04-25T02:14:52;16.63;;;4.75;;
21036;SDS011;10677;50.942;4.028;2023-04-25T02:17:18;17.75;;;4.50;;
21036;SDS011;10677;50.942;4.028;2023-04-25T02:19:43;20.38;;;4.38;;
21036;SDS011;10677;50.942;4.028;2023-04-25T02:22:09;16.88;;;4.22;;
21036;SDS011;10677;50.942;4.028;2023-04-25T02:24:35;24.58;;;4.75;;
21036;SDS011;10677;50.942;4.028;2023-04-25T02:27:01;18.98;;;4.60;;
21036;SDS011;10677;50.942;4.028;2023-04-25T02:29:27;15.98;;;4.15;;
21036;SDS011;10677;50.942;4.028;2023-04-25T02:31:54;18.85;;;4.57;;
21036;SDS011;10677;50.942;4.028;2023-04-25T02:34:20;19.00;;;4.90;;
21036;SDS011;10677;50.942;4.028;2023-04-25T02:36:45;23.52;;;4.63;;
21036;SDS011;10677;50.942;4.028;2023-04-25T02:39:11;22.98;;;4.43;;
21036;SDS011;10677;50.942;4.028;2023-04-25T02:41:37;19.90;;;4.45;;
21036;SDS011;10677;50.942;4.028;2023-04-25T02:44:02;15.30;;;3.58;;
21036;SDS011;10677;50.942;4.028;2023-04-25T02:46:28;22.10;;;4.38;;
21036;SDS011;10677;50.942;4.028;2023-04-25T02:48:53;19.50;;;4.30;;
21036;SDS011;10677;50.942;4.028;2023-04-25T02:51:19;22.02;;;4.63;;
21036;SDS011;10677;50.942;4.028;2023-04-25T02:53:45;13.52;;;3.47;;
21036;SDS011;10677;50.942;4.028;2023-04-25T02:56:10;16.92;;;4.03;;
21036;SDS011;10677;50.942;4.028;2023-04-25T02:58:36;20.45;;;4.93;;
21036;SDS011;10677;50.942;4.028;2023-04-25T03:01:02;22.85;;;4.88;;
21036;SDS011;10677;50.942;4.028;2023-04-25T03:03:27;19.75;;;3.95;;
21036;SDS011;10677;50.942;4.028;2023-04-25T03:05:53;17.08;;;3.72;;
21036;SDS011;10677;50.942;4.028;2023-04-25T03:08:19;22.50;;;4.65;;
21036;SDS011;10677;50.942;4.028;2023-04-25T03:10:45;18.58;;;4.10;;
21036;SDS011;10677;50.942;4.028;2023-04-25T03:13:11;15.98;;;4.07;;
21036;SDS011;10677;50.942;4.028;2023-04-25T03:15:38;14.98;;;4.20;;
21036;SDS011;10677;50.942;4.028;2023-04-25T03:18:04;16.50;;;4.10;;
21036;SDS011;10677;50.942;4.028;2023-04-25T03:20:29;15.18;;;4.65;;
21036;SDS011;10677;50.942;4.028;2023-04-25T03:22:55;16.33;;;4.32;;
21036;SDS011;10677;50.942;4.028;2023-04-25T03:25:21;14.40;;;4.63;;
21036;SDS011;10677;50.942;4.028;2023-04-25T03:27:47;13.32;;;4.13;;
21036;SDS011;10677;50.942;4.028;2023-04-25T03:30:12;15.00;;;4.45;;
21036;SDS011;10677;50.942;4.028;2023-04-25T03:32:38;17.58;;;4.63;;
21036;SDS011;10677;50.942;4.028;2023-04-25T03:35:04;20.02;;;4.32;;
21036;SDS011;10677;50.942;4.028;2023-04-25T03:37:30;20.15;;;5.75;;
21036;SDS011;10677;50.942;4.028;2023-04-25T03:39:56;13.25;;;4.57;;
21036;SDS011;10677;50.942;4.028;2023-04-25T03:42:22;16.13;;;4.25;;
21036;SDS011;10677;50.942;4.028;2023-04-25T03:44:48;18.80;;;4.13;;
21036;SDS011;10677;50.942;4.028;2023-04-25T03:47:14;18.98;;;4.97;;
21036;SDS011;10677;50.942;4.028;2023-04-25T03:49:40;18.30;;;5.22;;
21036;SDS011;10677;50.942;4.028;2023-04-25T03:52:06;16.33;;;4.10;;
21036;SDS011;10677;50.942;4.028;2023-04-25T03:54:32;19.83;;;4.13;;
21036;SDS011;10677;50.942;4.028;2023-04-25T03:56:58;17.48;;;4.45;;
21036;SDS011;10677;50.942;4.028;2023-04-25T03:59:23;16.98;;;4.30;;
21036;SDS011;10677;50.942;4.028;2023-04-25T04:01:51;18.98;;;4.65;;
21036;SDS011;10677;50.942;4.028;2023-04-25T04:04:17;16.75;;;4.70;;
21036;SDS011;10677;50.942;4.028;2023-04-25T04:06:43;20.27;;;4.28;;
21036;SDS011;10677;50.942;4.028;2023-04-25T04:09:09;12.93;;;3.47;;
21036;SDS011;10677;50.942;4.028;2023-04-25T04:11:36;18.50;;;3.63;;
21036;SDS011;10677;50.942;4.028;2023-04-25T04:14:04;10.68;;;3.78;;
21036;SDS011;10677;50.942;4.028;2023-04-25T04:16:30;15.73;;;4.65;;
21036;SDS011;10677;50.942;4.028;2023-04-25T04:18:56;14.93;;;4.88;;
21036;SDS011;10677;50.942;4.028;2023-04-25T04:21:22;17.30;;;5.65;;
21036;SDS011;10677;50.942;4.028;2023-04-25T04:23:47;17.70;;;4.57;;
21036;SDS011;10677;50.942;4.028;2023-04-25T04:26:13;14.38;;;4.18;;
21036;SDS011;10677;50.942;4.028;2023-04-25T04:28:41;14.20;;;4.53;;
21036;SDS011;10677;50.942;4.028;2023-04-25T04:31:08;18.33;;;4.35;;
21036;SDS011;10677;50.942;4.028;2023-04-25T04:33:35;11.55;;;3.92;;
21036;SDS011;10677;50.942;4.028;2023-04-25T04:36:01;12.88;;;5.10;;
21036;SDS011;10677;50.942;4.028;2023-04-25T04:38:28;14.77;;;4.07;;
21036;SDS011;10677;50.942;4.028;2023-04-25T04:40:55;15.85;;;3.60;;
21036;SDS011;10677;50.942;4.028;2023-04-25T04:43:21;15.27;;;4.03;;
21036;SDS011;10677;50.942;4.028;2023-04-25T04:45:47;13.23;;;4.47;;
21036;SDS011;10677;50.942;4.028;2023-04-25T04:48:14;12.23;;;4.78;;
21036;SDS011;10677;50.942;4.028;2023-04-25T04:50:39;15.93;;;4.00;;
21036;SDS011;10677;50.942;4.028;2023-04-25T04:53:06;13.77;;;4.30;;
21036;SDS011;10677;50.942;4.028;2023-04-25T04:55:32;12.57;;;4.07;;
21036;SDS011;10677;50.942;4.028;2023-04-25T04:57:57;14.43;;;4.07;;
21036;SDS011;10677;50.942;4.028;2023-04-25T05:00:23;14.40;;;3.90;;
21036;SDS011;10677;50.942;4.028;2023-04-25T05:02:49;14.82;;;4.70;;
21036;SDS011;10677;50.942;4.028;2023-04-25T05:05:14;18.58;;;4.60;;
21036;SDS011;10677;50.942;4.028;2023-04-25T05:07:40;16.35;;;3.83;;
21036;SDS011;10677;50.942;4.028;2023-04-25T05:10:06;11.68;;;4.32;;
21036;SDS011;10677;50.942;4.028;2023-04-25T05:12:32;16.08;;;4.65;;
21036;SDS011;10677;50.942;4.028;2023-04-25T05:14:58;13.52;;;3.45;;
21036;SDS011;10677;50.942;4.028;2023-04-25T05:17:23;15.73;;;4.03;;
21036;SDS011;10677;50.942;4.028;2023-04-25T05:19:49;12.70;;;3.00;;
21036;SDS011;10677;50.942;4.028;2023-04-25T05:22:15;13.43;;;3.72;;
21036;SDS011;10677;50.942;4.028;2023-04-25T05:24:41;16.98;;;3.83;;
21036;SDS011;10677;50.942;4.028;2023-04-25T05:27:07;10.90;;;3.08;;
21036;SDS011;10677;50.942;4.028;2023-04-25T05:29:33;12.95;;;3.28;;
21036;SDS011;10677;50.942;4.028;2023-04-25T05:31:58;12.90;;;3.38;;
21036;SDS011;10677;50.942;4.028;2023-04-25T05:34:24;14.07;;;3.28;;
21036;SDS011;10677;50.942;4.028;2023-04-25T05:36:50;18.90;;;4.05;;
21036;SDS011;10677;50.942;4.028;2023-04-25T05:39:15;13.75;;;3.67;;
21036;SDS011;10677;50.942;4.028;2023-04-25T05:41:44;14.30;;;3.65;;
21036;SDS011;10677;50.942;4.028;2023-04-25T05:44:09;13.18;;;3.88;;
21036;SDS011;10677;50.942;4.028;2023-04-25T05:46:35;14.90;;;3.80;;
21036;SDS011;10677;50.942;4.028;2023-04-25T05:49:01;15.23;;;4.53;;
21036;SDS011;10677;50.942;4.028;2023-04-25T05:51:27;16.38;;;4.50;;
21036;SDS011;10677;50.942;4.028;2023-04-25T05:53:53;22.13;;;6.00;;
21036;SDS011;10677;50.942;4.028;2023-04-25T05:56:19;13.30;;;4.65;;
21036;SDS011;10677;50.942;4.028;2023-04-25T05:58:45;15.60;;;4.93;;
21036;SDS011;10677;50.942;4.028;2023-04-25T06:01:11;17.88;;;4.22;;
21036;SDS011;10677;50.942;4.028;2023-04-25T06:03:37;15.02;;;3.83;;
21036;SDS011;10677;50.942;4.028;2023-04-25T06:06:03;19.60;;;4.20;;
21036;SDS011;10677;50.942;4.028;2023-04-25T06:08:30;16.02;;;4.07;;
21036;SDS011;10677;50.942;4.028;2023-04-25T06:10:57;15.85;;;4.05;;
21036;SDS011;10677;50.942;4.028;2023-04-25T06:13:23;16.38;;;3.97;;
21036;SDS011;10677;50.942;4.028;2023-04-25T06:15:48;19.45;;;9.52;;
21036;SDS011;10677;50.942;4.028;2023-04-25T06:18:14;10.50;;;3.35;;
21036;SDS011;10677;50.942;4.028;2023-04-25T06:20:40;27.73;;;6.28;;
21036;SDS011;10677;50.942;4.028;2023-04-25T06:23:07;12.10;;;3.72;;
21036;SDS011;10677;50.942;4.028;2023-04-25T06:25:32;11.10;;;3.22;;
21036;SDS011;10677;50.942;4.028;2023-04-25T06:27:58;14.90;;;3.50;;
21036;SDS011;10677;50.942;4.028;2023-04-25T06:30:24;14.05;;;3.50;;
21036;SDS011;10677;50.942;4.028;2023-04-25T06:32:52;11.80;;;3.55;;
21036;SDS011;10677;50.942;4.028;2023-04-25T06:35:18;13.05;;;3.30;;
21036;SDS011;10677;50.942;4.028;2023-04-25T06:37:44;11.32;;;3.55;;
21036;SDS011;10677;50.942;4.028;2023-04-25T06:40:12;17.67;;;3.45;;
21036;SDS011;10677;50.942;4.028;2023-04-25T06:42:40;18.77;;;4.35;;
21036;SDS011;10677;50.942;4.028;2023-04-25T06:45:06;15.95;;;4.35;;
21036;SDS011;10677;50.942;4.028;2023-04-25T06:47:35;8.38;;;3.15;;
21036;SDS011;10677;50.942;4.028;2023-04-25T06:50:01;12.80;;;2.72;;
21036;SDS011;10677;50.942;4.028;2023-04-25T06:52:27;13.30;;;2.55;;
21036;SDS011;10677;50.942;4.028;2023-04-25T06:54:53;17.58;;;3.15;;
21036;SDS011;10677;50.942;4.028;2023-04-25T06:57:19;10.60;;;2.80;;
21036;SDS011;10677;50.942;4.028;2023-04-25T06:59:45;21.08;;;3.15;;
21036;SDS011;10677;50.942;4.028;2023-04-25T07:02:10;12.38;;;3.13;;
21036;SDS011;10677;50.942;4.028;2023-04-25T07:04:36;15.13;;;3.00;;
21036;SDS011;10677;50.942;4.028;2023-04-25T07:07:02;12.10;;;3.20;;
21036;SDS011;10677;50.942;4.028;2023-04-25T07:09:28;10.30;;;2.88;;
21036;SDS011;10677;50.942;4.028;2023-04-25T07:11:54;11.80;;;2.35;;
21036;SDS011;10677;50.942;4.028;2023-04-25T07:14:21;9.63;;;2.45;;
21036;SDS011;10677;50.942;4.028;2023-04-25T07:16:47;12.93;;;2.88;;
21036;SDS011;10677;50.942;4.028;2023-04-25T07:19:13;12.13;;;2.80;;
21036;SDS011;10677;50.942;4.028;2023-04-25T07:21:39;8.80;;;2.08;;
21036;SDS011;10677;50.942;4.028;2023-04-25T07:24:06;12.38;;;2.60;;
21036;SDS011;10677;50.942;4.028;2023-04-25T07:26:32;13.77;;;3.10;;
21036;SDS011;10677;50.942;4.028;2023-04-25T07:28:58;8.05;;;2.35;;
21036;SDS011;10677;50.942;4.028;2023-04-25T07:31:24;11.20;;;2.63;;
21036;SDS011;10677;50.942;4.028;2023-04-25T07:33:50;11.23;;;2.58;;
21036;SDS011;10677;50.942;4.028;2023-04-25T07:36:15;10.60;;;2.95;;
21036;SDS011;10677;50.942;4.028;2023-04-25T07:38:41;9.77;;;2.35;;
21036;SDS011;10677;50.942;4.028;2023-04-25T07:41:07;8.48;;;2.33;;
21036;SDS011;10677;50.942;4.028;2023-04-25T07:43:32;7.75;;;2.40;;
21036;SDS011;10677;50.942;4.028;2023-04-25T07:45:58;11.05;;;1.95;;
21036;SDS011;10677;50.942;4.028;2023-04-25T07:48:24;11.07;;;2.40;;
21036;SDS011;10677;50.942;4.028;2023-04-25T07:50:49;11.20;;;2.38;;
21036;SDS011;10677;50.942;4.028;2023-04-25T07:53:15;13.35;;;2.30;;
21036;SDS011;10677;50.942;4.028;2023-04-25T07:55:43;6.22;;;1.50;;
21036;SDS011;10677;50.942;4.028;2023-04-25T07:58:09;7.82;;;1.67;;
21036;SDS011;10677;50.942;4.028;2023-04-25T08:00:36;13.02;;;1.92;;
21036;SDS011;10677;50.942;4.028;2023-04-25T08:03:02;11.75;;;1.80;;
21036;SDS011;10677;50.942;4.028;2023-04-25T08:05:28;5.72;;;1.65;;
21036;SDS011;10677;50.942;4.028;2023-04-25T08:07:53;10.27;;;2.03;;
21036;SDS011;10677;50.942;4.028;2023-04-25T08:10:20;9.55;;;1.95;;
21036;SDS011;10677;50.942;4.028;2023-04-25T08:12:47;9.63;;;2.20;;
21036;SDS011;10677;50.942;4.028;2023-04-25T08:15:13;8.05;;;1.52;;
21036;SDS011;10677;50.942;4.028;2023-04-25T08:17:39;9.15;;;2.22;;
21036;SDS011;10677;50.942;4.028;2023-04-25T08:20:05;8.43;;;1.95;;
21036;SDS011;10677;50.942;4.028;2023-04-25T08:22:31;9.15;;;2.00;;
21036;SDS011;10677;50.942;4.028;2023-04-25T08:24:57;5.88;;;2.08;;
21036;SDS011;10677;50.942;4.028;2023-04-25T08:27:23;8.48;;;1.77;;
21036;SDS011;10677;50.942;4.028;2023-04-25T08:29:49;11.27;;;2.20;;
21036;SDS011;10677;50.942;4.028;2023-04-25T08:32:16;10.40;;;1.60;;
21036;SDS011;10677;50.942;4.028;2023-04-25T08:34:42;9.95;;;1.90;;
21036;SDS011;10677;50.942;4.028;2023-04-25T08:37:09;8.15;;;1.50;;
21036;SDS011;10677;50.942;4.028;2023-04-25T08:39:35;5.55;;;1.20;;
21036;SDS011;10677;50.942;4.028;2023-04-25T08:42:02;7.20;;;1.80;;
21036;SDS011;10677;50.942;4.028;2023-04-25T08:44:34;4.75;;;1.52;;
21036;SDS011;10677;50.942;4.028;2023-04-25T08:47:01;11.32;;;2.28;;
21036;SDS011;10677;50.942;4.028;2023-04-25T08:49:34;7.70;;;1.30;;
21036;SDS011;10677;50.942;4.028;2023-04-25T08:52:01;8.38;;;1.63;;
21036;SDS011;10677;50.942;4.028;2023-04-25T08:54:31;6.55;;;1.40;;
21036;SDS011;10677;50.942;4.028;2023-04-25T08:57:00;8.35;;;1.92;;
21036;SDS011;10677;50.942;4.028;2023-04-25T08:59:30;8.30;;;1.60;;
21036;SDS011;10677;50.942;4.028;2023-04-25T09:01:56;8.63;;;1.65;;
21036;SDS011;10677;50.942;4.028;2023-04-25T09:04:22;13.13;;;2.05;;
21036;SDS011;10677;50.942;4.028;2023-04-25T09:06:48;9.80;;;1.92;;
21036;SDS011;10677;50.942;4.028;2023-04-25T09:09:14;9.73;;;1.60;;
21036;SDS011;10677;50.942;4.028;2023-04-25T09:11:40;9.57;;;1.48;;
21036;SDS011;10677;50.942;4.028;2023-04-25T09:14:10;6.18;;;1.48;;
21036;SDS011;10677;50.942;4.028;2023-04-25T09:17:03;4.75;;;1.55;;
21036;SDS011;10677;50.942;4.028;2023-04-25T09:19:30;4.22;;;1.27;;
21036;SDS011;10677;50.942;4.028;2023-04-25T09:21:58;5.15;;;1.40;;
21036;SDS011;10677;50.942;4.028;2023-04-25T09:26:58;7.03;;;1.60;;
21036;SDS011;10677;50.942;4.028;2023-04-25T09:29:34;6.18;;;1.50;;
21036;SDS011;10677;50.942;4.028;2023-04-25T09:32:20;5.93;;;1.10;;
21036;SDS011;10677;50.942;4.028;2023-04-25T09:34:50;8.63;;;1.80;;
21036;SDS011;10677;50.942;4.028;2023-04-25T09:37:17;7.18;;;1.30;;
21036;SDS011;10677;50.942;4.028;2023-04-25T09:39:55;5.15;;;1.17;;
21036;SDS011;10677;50.942;4.028;2023-04-25T09:42:25;5.43;;;0.98;;
21036;SDS011;10677;50.942;4.028;2023-04-25T09:44:54;8.98;;;1.30;;
21036;SDS011;10677;50.942;4.028;2023-04-25T09:47:20;4.60;;;1.35;;
21036;SDS011;10677;50.942;4.028;2023-04-25T09:49:48;4.45;;;0.90;;
21036;SDS011;10677;50.942;4.028;2023-04-25T09:52:16;4.53;;;1.38;;
21036;SDS011;10677;50.942;4.028;2023-04-25T09:54:44;5.47;;;1.50;;
21036;SDS011;10677;50.942;4.028;2023-04-25T09:57:11;4.15;;;1.02;;
21036;SDS011;10677;50.942;4.028;2023-04-25T09:59:46;6.38;;;1.10;;
21036;SDS011;10677;50.942;4.028;2023-04-25T10:02:14;5.93;;;1.30;;
21036;SDS011;10677;50.942;4.028;2023-04-25T10:04:42;7.53;;;1.40;;
21036;SDS011;10677;50.942;4.028;2023-04-25T10:07:11;7.70;;;1.38;;
21036;SDS011;10677;50.942;4.028;2023-04-25T10:09:37;7.47;;;1.02;;
21036;SDS011;10677;50.942;4.028;2023-04-25T10:12:05;5.60;;;1.08;;
21036;SDS011;10677;50.942;4.028;2023-04-25T10:14:32;5.43;;;1.63;;
21036;SDS011;10677;50.942;4.028;2023-04-25T10:16:58;7.00;;;1.30;;
21036;SDS011;10677;50.942;4.028;2023-04-25T10:19:26;6.55;;;1.92;;
21036;SDS011;10677;50.942;4.028;2023-04-25T10:24:42;6.25;;;1.50;;
21036;SDS011;10677;50.942;4.028;2023-04-25T10:27:09;5.32;;;0.90;;
21036;SDS011;10677;50.942;4.028;2023-04-25T10:29:35;5.20;;;1.35;;
21036;SDS011;10677;50.942;4.028;2023-04-25T10:32:02;6.57;;;1.33;;
21036;SDS011;10677;50.942;4.028;2023-04-25T10:34:37;5.97;;;1.65;;
21036;SDS011;10677;50.942;4.028;2023-04-25T10:37:05;5.43;;;1.27;;
21036;SDS011;10677;50.942;4.028;2023-04-25T10:39:33;4.70;;;0.95;;
21036;SDS011;10677;50.942;4.028;2023-04-25T10:41:59;7.90;;;1.38;;
21036;SDS011;10677;50.942;4.028;2023-04-25T10:44:28;7.18;;;1.23;;
21036;SDS011;10677;50.942;4.028;2023-04-25T10:46:58;15.48;;;3.28;;
21036;SDS011;10677;50.942;4.028;2023-04-25T10:49:35;4.07;;;0.80;;
21036;SDS011;10677;50.942;4.028;2023-04-25T10:54:46;8.05;;;1.40;;
21036;SDS011;10677;50.942;4.028;2023-04-25T10:57:26;4.50;;;1.10;;
21036;SDS011;10677;50.942;4.028;2023-04-25T10:59:59;5.72;;;1.13;;
21036;SDS011;10677;50.942;4.028;2023-04-25T11:02:26;2.97;;;0.75;;
21036;SDS011;10677;50.942;4.028;2023-04-25T11:04:53;4.68;;;0.98;;
21036;SDS011;10677;50.942;4.028;2023-04-25T11:07:29;5.10;;;0.98;;
21036;SDS011;10677;50.942;4.028;2023-04-25T11:10:15;4.10;;;1.10;;
21036;SDS011;10677;50.942;4.028;2023-04-25T11:12:41;7.47;;;1.30;;
21036;SDS011;10677;50.942;4.028;2023-04-25T11:15:07;6.72;;;1.20;;
21036;SDS011;10677;50.942;4.028;2023-04-25T11:17:33;5.00;;;1.02;;
21036;SDS011;10677;50.942;4.028;2023-04-25T11:19:59;5.47;;;1.50;;
21036;SDS011;10677;50.942;4.028;2023-04-25T11:22:26;5.55;;;1.30;;
21036;SDS011;10677;50.942;4.028;2023-04-25T11:24:52;5.70;;;0.90;;
21036;SDS011;10677;50.942;4.028;2023-04-25T11:27:18;5.85;;;1.13;;
21036;SDS011;10677;50.942;4.028;2023-04-25T11:29:46;3.72;;;1.27;;
21036;SDS011;10677;50.942;4.028;2023-04-25T11:32:14;5.07;;;1.35;;
21036;SDS011;10677;50.942;4.028;2023-04-25T11:34:42;3.58;;;0.68;;
21036;SDS011;10677;50.942;4.028;2023-04-25T11:37:10;3.78;;;0.70;;
21036;SDS011;10677;50.942;4.028;2023-04-25T11:39:37;4.43;;;0.75;;
21036;SDS011;10677;50.942;4.028;2023-04-25T11:42:03;4.95;;;0.85;;
21036;SDS011;10677;50.942;4.028;2023-04-25T11:44:30;6.10;;;1.17;;
21036;SDS011;10677;50.942;4.028;2023-04-25T11:46:56;5.97;;;0.73;;
21036;SDS011;10677;50.942;4.028;2023-04-25T11:49:23;5.20;;;1.00;;
21036;SDS011;10677;50.942;4.028;2023-04-25T11:54:30;6.70;;;1.58;;
21036;SDS011;10677;50.942;4.028;2023-04-25T11:56:56;2.95;;;0.90;;
21036;SDS011;10677;50.942;4.028;2023-04-25T11:59:25;4.60;;;1.10;;
21036;SDS011;10677;50.942;4.028;2023-04-25T12:01:51;5.07;;;1.17;;
21036;SDS011;10677;50.942;4.028;2023-04-25T12:04:21;4.80;;;1.10;;
21036;SDS011;10677;50.942;4.028;2023-04-25T12:06:49;3.55;;;1.00;;
21036;SDS011;10677;50.942;4.028;2023-04-25T12:09:19;5.10;;;1.58;;
21036;SDS011;10677;50.942;4.028;2023-04-25T12:11:54;8.35;;;0.82;;
21036;SDS011;10677;50.942;4.028;2023-04-25T12:14:24;5.63;;;1.48;;
21036;SDS011;10677;50.942;4.028;2023-04-25T12:16:55;4.72;;;1.30;;
21036;SDS011;10677;50.942;4.028;2023-04-25T12:19:23;6.15;;;1.42;;
21036;SDS011;10677;50.942;4.028;2023-04-25T12:21:49;5.05;;;1.17;;
21036;SDS011;10677;50.942;4.028;2023-04-25T12:24:22;6.88;;;1.35;;
21036;SDS011;10677;50.942;4.028;2023-04-25T12:27:05;6.70;;;1.27;;
21036;SDS011;10677;50.942;4.028;2023-04-25T12:29:32;7.20;;;1.77;;
21036;SDS011;10677;50.942;4.028;2023-04-25T12:31:59;7.18;;;1.45;;
21036;SDS011;10677;50.942;4.028;2023-04-25T12:34:28;6.75;;;1.27;;
21036;SDS011;10677;50.942;4.028;2023-04-25T12:36:56;10.88;;;1.90;;
21036;SDS011;10677;50.942;4.028;2023-04-25T12:39:23;10.25;;;1.52;;
21036;SDS011;10677;50.942;4.028;2023-04-25T12:41:50;4.35;;;1.20;;
21036;SDS011;10677;50.942;4.028;2023-04-25T12:44:18;7.47;;;1.55;;
21036;SDS011;10677;50.942;4.028;2023-04-25T12:46:45;7.93;;;1.58;;
21036;SDS011;10677;50.942;4.028;2023-04-25T12:49:11;5.78;;;1.27;;
21036;SDS011;10677;50.942;4.028;2023-04-25T12:51:37;5.85;;;1.27;;
21036;SDS011;10677;50.942;4.028;2023-04-25T12:54:03;9.60;;;1.58;;
21036;SDS011;10677;50.942;4.028;2023-04-25T12:56:34;5.55;;;0.95;;
21036;SDS011;10677;50.942;4.028;2023-04-25T12:59:02;4.45;;;1.27;;
21036;SDS011;10677;50.942;4.028;2023-04-25T13:01:28;6.30;;;1.30;;
21036;SDS011;10677;50.942;4.028;2023-04-25T13:03:54;7.20;;;1.42;;
21036;SDS011;10677;50.942;4.028;2023-04-25T13:06:20;7.28;;;1.45;;
21036;SDS011;10677;50.942;4.028;2023-04-25T13:08:47;7.18;;;1.30;;
21036;SDS011;10677;50.942;4.028;2023-04-25T13:11:12;5.90;;;1.52;;
21036;SDS011;10677;50.942;4.028;2023-04-25T13:13:42;8.15;;;1.52;;
21036;SDS011;10677;50.942;4.028;2023-04-25T13:16:09;5.70;;;1.50;;
21036;SDS011;10677;50.942;4.028;2023-04-25T13:18:35;4.68;;;1.48;;
21036;SDS011;10677;50.942;4.028;2023-04-25T13:21:03;5.90;;;1.33;;
21036;SDS011;10677;50.942;4.028;2023-04-25T13:23:29;6.78;;;1.20;;
21036;SDS011;10677;50.942;4.028;2023-04-25T13:25:55;5.05;;;1.55;;
21036;SDS011;10677;50.942;4.028;2023-04-25T13:28:26;5.82;;;1.25;;
21036;SDS011;10677;50.942;4.028;2023-04-25T13:30:52;6.18;;;0.98;;
21036;SDS011;10677;50.942;4.028;2023-04-25T13:33:19;5.85;;;1.15;;
21036;SDS011;10677;50.942;4.028;2023-04-25T13:35:46;5.32;;;1.40;;
21036;SDS011;10677;50.942;4.028;2023-04-25T13:38:18;6.43;;;1.40;;
21036;SDS011;10677;50.942;4.028;2023-04-25T13:40:47;3.92;;;0.90;;
21036;SDS011;10677;50.942;4.028;2023-04-25T13:43:14;5.93;;;1.40;;
21036;SDS011;10677;50.942;4.028;2023-04-25T13:45:40;4.38;;;1.20;;
21036;SDS011;10677;50.942;4.028;2023-04-25T13:48:06;6.40;;;1.13;;
21036;SDS011;10677;50.942;4.028;2023-04-25T13:50:31;5.15;;;1.17;;
21036;SDS011;10677;50.942;4.028;2023-04-25T13:52:57;4.35;;;1.10;;
21036;SDS011;10677;50.942;4.028;2023-04-25T13:55:23;3.00;;;0.88;;
21036;SDS011;10677;50.942;4.028;2023-04-25T13:57:48;5.97;;;1.33;;
21036;SDS011;10677;50.942;4.028;2023-04-25T14:00:14;5.72;;;1.95;;
21036;SDS011;10677;50.942;4.028;2023-04-25T14:02:40;7.20;;;1.40;;
21036;SDS011;10677;50.942;4.028;2023-04-25T14:05:06;8.18;;;1.38;;
21036;SDS011;10677;50.942;4.028;2023-04-25T14:07:33;2.47;;;1.05;;
21036;SDS011;10677;50.942;4.028;2023-04-25T14:10:02;8.07;;;1.77;;
21036;SDS011;10677;50.942;4.028;2023-04-25T14:12:29;5.85;;;1.38;;
21036;SDS011;10677;50.942;4.028;2023-04-25T14:14:55;5.13;;;1.10;;
21036;SDS011;10677;50.942;4.028;2023-04-25T14:17:21;5.85;;;1.40;;
21036;SDS011;10677;50.942;4.028;2023-04-25T14:19:47;7.40;;;1.55;;
21036;SDS011;10677;50.942;4.028;2023-04-25T14:22:14;7.78;;;1.33;;
21036;SDS011;10677;50.942;4.028;2023-04-25T14:24:42;6.05;;;1.30;;
21036;SDS011;10677;50.942;4.028;2023-04-25T14:27:07;5.95;;;1.67;;
21036;SDS011;10677;50.942;4.028;2023-04-25T14:32:55;4.20;;;1.02;;
21036;SDS011;10677;50.942;4.028;2023-04-25T14:35:21;5.28;;;1.60;;
21036;SDS011;10677;50.942;4.028;2023-04-25T14:37:47;4.57;;;1.10;;
21036;SDS011;10677;50.942;4.028;2023-04-25T14:40:14;6.15;;;1.60;;
21036;SDS011;10677;50.942;4.028;2023-04-25T14:42:41;3.92;;;1.17;;
21036;SDS011;10677;50.942;4.028;2023-04-25T14:45:08;9.95;;;1.75;;
21036;SDS011;10677;50.942;4.028;2023-04-25T14:47:34;7.55;;;1.40;;
21036;SDS011;10677;50.942;4.028;2023-04-25T14:50:01;5.85;;;1.40;;
21036;SDS011;10677;50.942;4.028;2023-04-25T14:52:27;4.55;;;1.20;;